Time;durP1;ratioP1;P1;durP2;ratioP2;P2;SDS_P1;SDS_P2;PMS_P1;PMS_P2;Temp;Humidity;BMP_temperature;BMP_pressure;BME280_temperature;BME280_humidity;BME280_pressure;Samples;Min_cycle;Max_cycle;Signal;HPM_P1;HPM_P2
2022/09/02 00:01:42;;;;;;;3.83;1.20;;;;;;;16.57;49.29;101640.34;4981460;28;20026;-83
2022/09/02 00:04:13;;;;;;;2.70;1.38;;;;;;;16.45;50.26;101645.75;4978623;28;20034;-82
2022/09/02 00:06:41;;;;;;;3.35;1.40;;;;;;;16.34;50.60;101645.94;4984371;28;20072;-83
2022/09/02 00:09:09;;;;;;;3.17;1.20;;;;;;;16.30;50.71;101634.13;4983020;28;20557;-84
2022/09/02 00:11:36;;;;;;;3.22;1.40;;;;;;;16.26;50.98;101643.22;4960531;28;20169;-83
2022/09/02 00:14:05;;;;;;;3.67;1.42;;;;;;;16.23;50.90;101635.66;4969946;28;20041;-83
2022/09/02 00:16:32;;;;;;;5.05;1.40;;;;;;;16.14;51.60;101631.25;4972806;28;20481;-83
2022/09/02 00:18:59;;;;;;;3.95;1.48;;;;;;;16.27;50.54;101639.63;4958754;28;20323;-86
2022/09/02 00:21:25;;;;;;;4.47;1.40;;;;;;;16.17;51.18;101633.59;4976082;28;20494;-83
2022/09/02 00:23:51;;;;;;;4.13;1.60;;;;;;;16.11;51.62;101628.91;4969106;28;20125;-83
2022/09/02 00:26:17;;;;;;;5.22;1.50;;;;;;;16.14;51.34;101628.66;4957910;28;20146;-88
2022/09/02 00:28:45;;;;;;;2.50;1.25;;;;;;;16.01;52.08;101620.28;4980688;28;20034;-82
2022/09/02 00:31:11;;;;;;;6.72;1.92;;;;;;;15.95;51.96;101623.47;4965708;28;20034;-84
2022/09/02 00:33:37;;;;;;;1.83;1.33;;;;;;;15.95;51.99;101623.47;4966212;28;20084;-83
2022/09/02 00:36:03;;;;;;;3.50;1.35;;;;;;;15.91;52.52;101628.97;4990867;28;20030;-84
2022/09/02 00:38:32;;;;;;;3.45;1.42;;;;;;;15.96;52.25;101619.88;4973425;28;20042;-84
2022/09/02 00:41:00;;;;;;;4.22;1.40;;;;;;;15.85;52.04;101619.06;4961266;28;20015;-81
2022/09/02 00:43:37;;;;;;;4.83;1.50;;;;;;;15.96;52.42;101625.13;4990606;28;20042;-82
2022/09/02 00:46:03;;;;;;;6.72;1.65;;;;;;;15.92;52.52;101625.38;4973097;28;20046;-81
2022/09/02 00:48:29;;;;;;;2.33;1.30;;;;;;;15.90;52.13;101616.84;4979067;28;20110;-81
2022/09/02 00:50:54;;;;;;;2.33;1.35;;;;;;;15.77;52.78;101605.88;4986781;28;20034;-81
2022/09/02 00:53:19;;;;;;;4.47;1.50;;;;;;;16.00;52.03;101616.00;4990415;28;20093;-83
2022/09/02 00:55:49;;;;;;;5.03;1.50;;;;;;;15.89;52.59;101612.59;4979473;28;20054;-82
2022/09/02 00:58:25;;;;;;;4.95;1.30;;;;;;;15.79;52.48;101611.78;4973280;28;20022;-81
2022/09/02 01:00:56;;;;;;;6.70;1.60;;;;;;;15.86;52.52;101609.41;4973117;28;20026;-84
2022/09/02 01:03:25;;;;;;;3.92;1.42;;;;;;;15.80;52.52;101595.13;4989736;28;20030;-80
2022/09/02 01:05:53;;;;;;;4.47;1.45;;;;;;;15.79;53.09;101610.97;4965678;28;20069;-82
2022/09/02 01:08:44;;;;;;;5.80;1.60;;;;;;;15.74;53.07;101606.13;4985875;28;20030;-84
2022/09/02 01:11:10;;;;;;;3.55;1.40;;;;;;;15.71;52.89;101601.16;4992140;28;20301;-83
2022/09/02 01:13:48;;;;;;;3.92;1.50;;;;;;;15.63;53.49;101603.66;4979454;28;20034;-86
2022/09/02 01:16:56;;;;;;;4.80;1.50;;;;;;;15.70;52.74;101593.47;4985869;28;20089;-82
2022/09/02 01:19:56;;;;;;;3.67;1.60;;;;;;;15.57;52.82;101562.34;4967994;28;20113;-84
2022/09/02 01:22:35;;;;;;;3.83;1.33;;;;;;;15.59;53.77;101594.41;4968273;28;20022;-85
2022/09/02 01:25:25;;;;;;;3.38;1.30;;;;;;;15.68;53.51;101598.84;4971875;28;20553;-83
2022/09/02 01:27:58;;;;;;;3.65;1.33;;;;;;;15.61;53.35;101605.56;4974243;28;20036;-84
2022/09/02 01:30:30;;;;;;;3.63;1.50;;;;;;;15.53;53.47;101592.34;4985481;28;20062;-83
2022/09/02 01:33:01;;;;;;;4.47;1.52;;;;;;;15.33;53.62;101565.41;4981856;28;20389;-83
2022/09/02 01:35:49;;;;;;;4.63;1.50;;;;;;;15.31;53.58;101562.09;4972619;28;20132;-84
2022/09/02 01:38:28;;;;;;;4.65;1.60;;;;;;;15.57;53.72;101598.97;4972857;28;20034;-85
2022/09/02 01:40:53;;;;;;;3.70;1.60;;;;;;;15.33;53.52;101553.16;4974016;28;20034;-82
2022/09/02 01:43:22;;;;;;;4.55;1.63;;;;;;;15.49;53.53;101585.78;4988289;28;20395;-83
2022/09/02 01:45:51;;;;;;;3.10;1.50;;;;;;;15.33;54.52;101576.69;4988410;28;20061;-82
2022/09/02 01:48:17;;;;;;;4.10;1.55;;;;;;;15.22;55.67;101579.44;4968582;28;20113;-82
2022/09/02 01:50:46;;;;;;;5.50;1.55;;;;;;;15.23;55.88;101585.47;4987534;28;20214;-82
2022/09/02 01:53:12;;;;;;;4.40;1.50;;;;;;;15.30;54.92;101582.16;4969277;28;20078;-82
2022/09/02 01:55:38;;;;;;;5.30;1.40;;;;;;;15.24;55.23;101587.94;4985639;28;20065;-82
2022/09/02 01:58:03;;;;;;;3.13;1.55;;;;;;;15.38;54.38;101581.50;4987484;28;20041;-83
2022/09/02 02:00:29;;;;;;;4.30;1.50;;;;;;;15.34;54.60;101588.78;4986400;28;20022;-83
2022/09/02 02:02:55;;;;;;;2.65;1.40;;;;;;;15.30;54.85;101582.16;4989349;28;20026;-83
2022/09/02 02:05:21;;;;;;;4.80;1.40;;;;;;;15.10;55.36;101575.31;4988037;28;20100;-81
2022/09/02 02:07:47;;;;;;;4.13;1.40;;;;;;;15.13;55.06;101580.25;4982736;28;20054;-82
2022/09/02 02:10:15;;;;;;;4.35;1.50;;;;;;;15.11;54.98;101579.56;4988387;28;20046;-82
2022/09/02 02:12:40;;;;;;;3.75;1.52;;;;;;;15.03;54.92;101580.25;4984455;28;20037;-83
2022/09/02 02:15:13;;;;;;;2.17;1.30;;;;;;;15.02;54.77;101586.41;4983138;28;20026;-82
2022/09/02 02:17:39;;;;;;;3.83;1.60;;;;;;;15.10;54.44;101586.56;4980292;28;20026;-81
2022/09/02 02:20:08;;;;;;;6.15;1.40;;;;;;;15.07;54.39;101580.78;4980191;28;20036;-82
2022/09/02 02:22:33;;;;;;;3.97;1.40;;;;;;;15.04;54.88;101581.91;4977297;28;20076;-82
2022/09/02 02:24:59;;;;;;;3.13;1.38;;;;;;;14.93;55.30;101589.03;4984993;28;20034;-82
2022/09/02 02:27:24;;;;;;;4.10;1.63;;;;;;;15.01;54.95;101581.31;4989020;28;20042;-81
2022/09/02 02:29:50;;;;;;;2.85;1.48;;;;;;;14.92;55.00;101566.47;4988717;28;20085;-82
2022/09/02 02:32:17;;;;;;;2.80;1.42;;;;;;;14.95;55.14;101574.03;4976648;28;20054;-82
2022/09/02 02:34:43;;;;;;;2.92;1.50;;;;;;;14.85;55.20;101561.81;4978931;28;20098;-83
2022/09/02 02:37:11;;;;;;;6.10;1.50;;;;;;;14.83;55.57;101568.09;4988585;28;20490;-80
2022/09/02 02:39:37;;;;;;;4.10;1.48;;;;;;;14.88;55.31;101566.75;4984850;28;20037;-82
2022/09/02 02:42:02;;;;;;;6.13;1.90;;;;;;;14.87;55.16;101565.09;4986959;28;20053;-83
2022/09/02 02:44:28;;;;;;;3.35;1.40;;;;;;;14.88;55.04;101561.53;4981353;28;20398;-82
2022/09/02 02:46:54;;;;;;;2.65;1.55;;;;;;;14.80;55.21;101558.78;4971288;28;20037;-83
2022/09/02 02:49:19;;;;;;;2.65;1.52;;;;;;;14.82;55.20;101567.28;4984945;28;20030;-83
2022/09/02 02:51:45;;;;;;;6.10;1.70;;;;;;;14.79;55.10;101562.31;4979774;28;20471;-83
2022/09/02 02:54:13;;;;;;;4.22;1.60;;;;;;;14.76;55.26;101552.16;4970629;28;20482;-83
2022/09/02 02:56:39;;;;;;;3.10;1.75;;;;;;;14.69;55.60;101555.44;4985929;28;20033;-83
2022/09/02 02:59:04;;;;;;;5.15;1.50;;;;;;;14.68;55.34;101554.63;4962529;28;20097;-84
2022/09/02 03:01:31;;;;;;;2.17;1.40;;;;;;;14.59;55.95;101563.25;4976245;28;20506;-82
2022/09/02 03:03:56;;;;;;;4.18;1.38;;;;;;;14.64;55.81;101558.44;4965042;28;20038;-83
2022/09/02 03:06:23;;;;;;;4.75;1.50;;;;;;;14.62;55.71;101552.50;4966234;28;20037;-82
2022/09/02 03:08:48;;;;;;;4.68;1.40;;;;;;;14.62;55.93;101549.91;4965168;28;20455;-84
2022/09/02 03:11:15;;;;;;;3.55;1.60;;;;;;;14.56;55.84;101545.22;4982597;28;20058;-81
2022/09/02 03:13:41;;;;;;;5.53;1.70;;;;;;;14.48;56.07;101552.91;4969167;28;20423;-81
2022/09/02 03:16:06;;;;;;;4.32;1.50;;;;;;;14.60;55.79;101549.22;4966084;28;20356;-82
2022/09/02 03:18:33;;;;;;;3.50;1.48;;;;;;;14.65;55.58;101554.88;4969267;28;20038;-83
2022/09/02 03:20:59;;;;;;;3.83;1.90;;;;;;;14.53;56.04;101545.50;4970434;28;20026;-83
2022/09/02 03:23:24;;;;;;;4.22;1.50;;;;;;;14.42;56.10;101551.63;4978355;28;20113;-81
2022/09/02 03:25:50;;;;;;;5.03;1.50;;;;;;;14.44;56.14;101551.47;4968981;28;20388;-83
2022/09/02 03:28:16;;;;;;;2.13;1.30;;;;;;;14.41;56.36;101541.31;4984780;28;20385;-83
2022/09/02 03:30:44;;;;;;;2.97;1.58;;;;;;;14.49;56.34;101544.94;4981055;28;20034;-81
2022/09/02 03:33:09;;;;;;;5.00;1.60;;;;;;;14.41;56.61;101547.34;4976648;28;20027;-83
2022/09/02 03:35:40;;;;;;;3.30;1.60;;;;;;;14.38;56.74;101541.56;4986768;28;20045;-86
2022/09/02 03:38:06;;;;;;;5.13;1.70;;;;;;;14.36;57.30;101539.09;4987368;28;20018;-81
2022/09/02 03:40:32;;;;;;;4.05;1.50;;;;;;;14.33;56.93;101534.94;4987135;28;20034;-83
2022/09/02 03:42:57;;;;;;;3.53;1.40;;;;;;;14.31;56.96;101536.88;4966402;28;20026;-83
2022/09/02 03:45:23;;;;;;;2.50;1.45;;;;;;;14.20;57.66;101539.56;4972994;28;20481;-83
2022/09/02 03:47:53;;;;;;;3.45;1.60;;;;;;;14.31;57.17;101541.28;4981848;28;20030;-84
2022/09/02 03:50:25;;;;;;;5.78;1.60;;;;;;;14.31;57.34;101541.28;4984089;28;20069;-84
2022/09/02 03:52:51;;;;;;;3.00;1.40;;;;;;;14.29;56.97;101544.03;4970881;28;20073;-83
2022/09/02 03:55:17;;;;;;;5.85;1.58;;;;;;;14.19;57.43;101527.50;4954631;28;20122;-84
2022/09/02 03:57:43;;;;;;;2.65;1.48;;;;;;;14.19;57.94;101527.50;4974410;28;20034;-84
2022/09/02 04:00:11;;;;;;;3.00;1.50;;;;;;;14.24;57.53;101540.16;4959306;28;20069;-83
2022/09/02 04:02:37;;;;;;;4.68;1.70;;;;;;;14.17;57.61;101524.22;4973285;28;20145;-84
2022/09/02 04:05:03;;;;;;;4.13;1.60;;;;;;;14.09;58.32;101516.19;4962554;28;20120;-83
2022/09/02 04:07:28;;;;;;;4.05;1.70;;;;;;;14.09;57.61;101511.78;4974912;28;20023;-82
2022/09/02 04:09:55;;;;;;;3.47;1.42;;;;;;;14.17;57.92;101524.22;4979494;28;20117;-84
2022/09/02 04:12:21;;;;;;;2.60;1.40;;;;;;;14.18;58.05;101530.25;4972010;28;20533;-83
2022/09/02 04:14:46;;;;;;;2.78;1.42;;;;;;;14.19;57.85;101511.84;4975831;28;20121;-82
2022/09/02 04:17:12;;;;;;;3.78;1.58;;;;;;;14.16;57.99;101500.84;4972068;28;20457;-83
2022/09/02 04:19:38;;;;;;;4.30;1.50;;;;;;;14.23;57.10;101513.25;4968009;28;20034;-83
2022/09/02 04:22:03;;;;;;;5.60;1.70;;;;;;;14.21;57.70;101515.13;4959669;28;20038;-85
2022/09/02 04:24:30;;;;;;;2.67;1.50;;;;;;;14.20;57.59;101516.09;4986856;28;20030;-85
2022/09/02 04:26:55;;;;;;;5.30;1.60;;;;;;;14.15;58.06;101514.84;4969471;28;20385;-79
2022/09/02 04:29:20;;;;;;;4.72;1.80;;;;;;;14.03;58.79;101516.72;4985042;28;20037;-83
2022/09/02 04:31:46;;;;;;;3.78;1.60;;;;;;;14.11;58.15;101503.88;4968992;28;20039;-84
2022/09/02 04:34:11;;;;;;;3.65;1.70;;;;;;;14.07;58.56;101518.13;4985567;28;20022;-81
2022/09/02 04:36:37;;;;;;;3.78;1.60;;;;;;;14.02;58.48;101515.06;4978996;28;20387;-82
2022/09/02 04:39:02;;;;;;;3.80;1.60;;;;;;;14.04;58.49;101507.94;4975958;28;20039;-82
2022/09/02 04:41:29;;;;;;;3.95;1.52;;;;;;;14.02;58.51;101515.06;4962604;28;20031;-82
2022/09/02 04:43:57;;;;;;;4.57;1.67;;;;;;;14.02;58.68;101512.47;4979527;28;20054;-85
2022/09/02 04:46:23;;;;;;;5.72;2.08;;;;;;;13.92;59.04;101503.75;4986563;28;20117;-80
2022/09/02 04:48:50;;;;;;;4.72;1.58;;;;;;;13.90;59.69;101513.50;4989030;28;20037;-80
2022/09/02 04:51:19;;;;;;;4.75;1.80;;;;;;;13.99;59.11;101512.72;4982696;28;20038;-81
2022/09/02 04:53:46;;;;;;;3.40;1.50;;;;;;;14.12;58.29;101510.72;4977701;28;20046;-81
2022/09/02 04:56:14;;;;;;;4.75;1.70;;;;;;;14.14;58.50;101519.25;4975997;28;20039;-81
2022/09/02 04:58:43;;;;;;;3.60;1.65;;;;;;;14.12;58.91;101515.94;4975612;28;20061;-81
2022/09/02 05:01:13;;;;;;;2.97;1.50;;;;;;;14.08;58.97;101509.31;4968497;28;20419;-81
2022/09/02 05:03:39;;;;;;;4.93;1.70;;;;;;;14.10;58.55;101512.63;4981063;28;20384;-81
2022/09/02 05:06:07;;;;;;;3.17;1.55;;;;;;;14.03;59.18;101517.53;4974806;28;20042;-81
2022/09/02 05:08:36;;;;;;;3.80;1.48;;;;;;;14.10;58.99;101512.63;4969168;28;20022;-82
2022/09/02 05:11:06;;;;;;;4.13;1.85;;;;;;;14.15;59.04;101515.66;4969006;28;20034;-81
2022/09/02 05:13:31;;;;;;;4.55;1.70;;;;;;;14.15;58.70;101502.63;4984659;28;20037;-80
2022/09/02 05:15:57;;;;;;;5.03;1.73;;;;;;;14.08;59.35;101504.94;4984478;28;20030;-81
2022/09/02 05:18:22;;;;;;;4.72;1.70;;;;;;;14.19;58.76;101505.81;4984205;28;20034;-81
2022/09/02 05:20:48;;;;;;;4.20;1.70;;;;;;;14.12;58.81;101505.50;4983270;28;20030;-81
2022/09/02 05:23:13;;;;;;;2.95;1.70;;;;;;;14.22;58.44;101509.00;4981341;28;20038;-80
2022/09/02 05:25:39;;;;;;;4.57;1.80;;;;;;;14.14;59.07;101514.03;4986499;28;20031;-81
2022/09/02 05:28:07;;;;;;;4.30;1.92;;;;;;;14.16;58.96;101516.50;4984536;28;20466;-82
2022/09/02 05:30:34;;;;;;;4.72;1.60;;;;;;;14.16;58.89;101506.88;4966520;28;20030;-81
2022/09/02 05:32:59;;;;;;;5.80;2.10;;;;;;;14.19;59.10;101506.63;4984499;28;20119;-81
2022/09/02 05:35:24;;;;;;;4.18;1.70;;;;;;;14.16;59.00;101506.88;4985036;28;20062;-81
2022/09/02 05:37:50;;;;;;;4.18;1.60;;;;;;;14.18;59.00;101504.97;4983924;28;20028;-82
2022/09/02 05:40:15;;;;;;;3.60;1.75;;;;;;;14.28;59.06;101505.84;4985910;28;20034;-83
2022/09/02 05:42:40;;;;;;;4.82;1.65;;;;;;;14.27;59.13;101503.34;4986433;28;20037;-82
2022/09/02 05:45:07;;;;;;;3.17;1.70;;;;;;;14.34;58.49;101502.69;4985797;28;20030;-81
2022/09/02 05:47:33;;;;;;;5.07;1.50;;;;;;;14.33;58.74;101514.06;4989458;28;20061;-81
2022/09/02 05:50:00;;;;;;;5.55;1.70;;;;;;;14.39;58.56;101511.91;4985903;28;20117;-81
2022/09/02 05:52:26;;;;;;;5.75;1.60;;;;;;;14.37;59.01;101501.59;4983658;28;20053;-81
2022/09/02 05:54:52;;;;;;;5.32;1.80;;;;;;;14.33;58.57;101503.63;4988559;28;20034;-82
2022/09/02 05:57:19;;;;;;;6.47;1.50;;;;;;;14.49;58.47;101510.19;4981418;28;20152;-81
2022/09/02 05:59:46;;;;;;;4.75;1.70;;;;;;;14.52;58.17;101512.53;4988391;28;20038;-81
2022/09/02 06:02:13;;;;;;;5.10;1.65;;;;;;;14.50;58.85;101504.00;4980751;28;20030;-82
2022/09/02 06:04:42;;;;;;;5.90;1.77;;;;;;;14.64;58.08;101506.22;4983330;28;20066;-83
2022/09/02 06:07:07;;;;;;;;;;;;;;;14.75;57.24;101513.94;4981423;28;20034;-82
2022/09/02 06:09:33;;;;;;;4.57;1.73;;;;;;;14.71;57.62;101503.91;4977504;28;19925;-82
2022/09/02 06:11:59;;;;;;;4.90;1.55;;;;;;;14.82;57.57;101515.06;4988245;28;20030;-82
2022/09/02 06:14:25;;;;;;;2.88;1.38;;;;;;;14.91;57.19;101507.34;4980608;28;20070;-82
2022/09/02 06:16:53;;;;;;;4.60;1.63;;;;;;;14.99;56.94;101504.91;4989088;28;20526;-82
2022/09/02 06:19:20;;;;;;;4.73;1.60;;;;;;;15.03;57.00;101501.06;4975258;28;20037;-82
2022/09/02 06:21:45;;;;;;;4.95;1.83;;;;;;;15.11;57.29;101504.59;4977672;28;20830;-82
2022/09/02 06:24:11;;;;;;;3.72;1.50;;;;;;;15.18;56.70;101507.50;4974285;28;20038;-82
2022/09/02 06:26:38;;;;;;;4.60;1.45;;;;;;;15.22;56.90;101508.88;4978894;28;20027;-82
2022/09/02 06:29:04;;;;;;;5.85;1.77;;;;;;;15.28;56.38;101505.69;4978848;28;20034;-81
2022/09/02 06:31:30;;;;;;;5.07;1.73;;;;;;;15.26;56.39;101502.41;4966820;28;20114;-81
2022/09/02 06:33:57;;;;;;;5.22;1.80;;;;;;;15.31;56.21;101504.59;4970662;28;20038;-83
2022/09/02 06:36:25;;;;;;;6.70;1.85;;;;;;;15.43;56.50;101518.38;4961512;28;20054;-83
2022/09/02 06:38:52;;;;;;;3.50;1.70;;;;;;;15.43;56.32;101510.50;4985187;28;20040;-82
2022/09/02 06:41:22;;;;;;;5.80;1.77;;;;;;;15.49;56.56;101507.34;4984316;28;20058;-82
2022/09/02 06:43:48;;;;;;;4.07;1.70;;;;;;;15.53;56.46;101511.31;4976527;28;20027;-82
2022/09/02 06:46:16;;;;;;;4.25;1.70;;;;;;;15.59;56.35;101508.13;4970626;28;20037;-83
2022/09/02 06:48:42;;;;;;;5.47;1.88;;;;;;;15.61;55.86;101496.56;4973355;28;20027;-84
2022/09/02 06:51:07;;;;;;;4.07;1.70;;;;;;;15.64;56.36;101496.31;4980226;28;20389;-84
2022/09/02 06:53:33;;;;;;;5.38;1.60;;;;;;;15.72;56.41;101497.41;4993863;28;20058;-82
2022/09/02 06:55:58;;;;;;;5.28;2.00;;;;;;;15.73;55.95;101492.03;4974473;28;20111;-82
2022/09/02 06:58:23;;;;;;;4.82;1.75;;;;;;;15.76;56.68;101494.34;4975853;28;20397;-82
2022/09/02 07:00:49;;;;;;;4.35;1.50;;;;;;;15.81;56.47;101497.34;4983729;28;20100;-83
2022/09/02 07:06:08;;;;;;;3.45;1.70;;;;;;;15.92;55.96;101502.41;4984645;28;20046;-83
2022/09/02 07:08:35;;;;;;;4.75;1.92;;;;;;;16.01;55.95;101492.91;4977526;28;20041;-83
2022/09/02 07:11:00;;;;;;;4.40;1.60;;;;;;;16.08;55.78;101493.97;4976285;28;20030;-82
2022/09/02 07:13:25;;;;;;;5.28;1.92;;;;;;;16.17;55.12;101484.41;4977112;28;20041;-82
2022/09/02 07:15:51;;;;;;;6.35;1.90;;;;;;;16.24;55.66;101493.34;4979949;28;20027;-82
2022/09/02 07:18:16;;;;;;;3.97;1.88;;;;;;;16.29;54.23;101487.69;4988225;28;20041;-81
2022/09/02 07:20:45;;;;;;;5.18;1.67;;;;;;;16.38;54.42;101490.22;4978173;28;20045;-82
2022/09/02 07:23:10;;;;;;;3.53;1.75;;;;;;;16.45;54.32;101486.03;4978913;28;20027;-83
2022/09/02 07:25:39;;;;;;;4.15;1.77;;;;;;;16.50;53.72;101492.63;4973628;28;20037;-82
2022/09/02 07:28:05;;;;;;;3.67;1.80;;;;;;;16.57;53.85;101483.22;4975750;28;20037;-82
2022/09/02 07:30:31;;;;;;;5.53;1.80;;;;;;;16.66;54.17;101479.72;4976042;28;20038;-81
2022/09/02 07:32:56;;;;;;;4.93;2.13;;;;;;;16.71;53.60;101480.13;4967594;28;20030;-82
2022/09/02 07:35:21;;;;;;;6.40;1.92;;;;;;;16.80;53.04;101484.44;4981409;28;20031;-83
2022/09/02 07:37:49;;;;;;;5.55;2.00;;;;;;;16.85;53.30;101482.22;4978715;28;20050;-82
2022/09/02 07:40:15;;;;;;;7.97;2.08;;;;;;;16.92;53.47;101491.13;4974936;28;20034;-82
2022/09/02 07:42:41;;;;;;;6.95;2.30;;;;;;;16.98;52.74;101477.44;4953123;28;20508;-82
2022/09/02 07:45:08;;;;;;;7.10;2.25;;;;;;;16.99;52.76;101479.06;4972725;28;20043;-82
2022/09/02 07:47:33;;;;;;;5.75;1.92;;;;;;;17.10;52.43;101479.81;4976002;28;20034;-81
2022/09/02 07:49:59;;;;;;;5.25;1.70;;;;;;;17.11;52.57;101476.22;4980307;28;20391;-82
2022/09/02 07:52:24;;;;;;;5.20;2.10;;;;;;;17.16;52.82;101476.59;4973115;28;20043;-83
2022/09/02 07:54:50;;;;;;;4.80;1.83;;;;;;;17.23;52.32;101485.47;4953714;28;20450;-83
2022/09/02 07:57:15;;;;;;;5.70;2.13;;;;;;;17.22;52.20;101475.97;4973078;28;20121;-83
2022/09/02 07:59:41;;;;;;;5.63;2.13;;;;;;;17.29;52.49;101479.63;4980021;28;20062;-84
2022/09/02 08:02:08;;;;;;;6.05;2.25;;;;;;;17.29;52.41;101474.38;4961542;28;20050;-85
2022/09/02 08:04:33;;;;;;;5.97;2.10;;;;;;;17.36;52.44;101478.03;4982102;28;20061;-84
2022/09/02 08:06:59;;;;;;;6.30;2.13;;;;;;;17.37;52.18;101479.66;4964813;28;20049;-84
2022/09/02 08:09:24;;;;;;;8.35;2.28;;;;;;;17.40;52.35;101468.06;4965756;28;20042;-84
2022/09/02 08:11:50;;;;;;;7.03;2.00;;;;;;;17.45;51.72;101474.50;4977453;28;20069;-86
2022/09/02 08:14:20;;;;;;;7.40;2.00;;;;;;;17.49;52.54;101470.59;4981251;28;20356;-84
2022/09/02 08:16:46;;;;;;;4.72;2.00;;;;;;;17.56;52.27;101469.97;4975781;28;20026;-84
2022/09/02 08:19:12;;;;;;;5.53;2.15;;;;;;;17.63;52.27;101471.00;4985186;28;20041;-81
2022/09/02 08:21:38;;;;;;;6.25;2.00;;;;;;;17.68;52.94;101474.78;4970369;28;20050;-82
2022/09/02 08:24:04;;;;;;;6.53;2.10;;;;;;;17.76;52.64;101476.66;4982333;28;20037;-83
2022/09/02 08:26:29;;;;;;;5.20;2.17;;;;;;;17.87;52.90;101475.56;4969915;28;20467;-82
2022/09/02 08:28:55;;;;;;;8.38;2.30;;;;;;;17.91;52.68;101464.59;4977108;28;20040;-83
2022/09/02 08:31:21;;;;;;;6.07;2.25;;;;;;;17.98;52.21;101455.13;4978828;28;20352;-83
2022/09/02 08:33:46;;;;;;;6.00;2.30;;;;;;;18.09;51.95;101466.31;4978301;28;20030;-83
2022/09/02 08:36:13;;;;;;;5.47;2.40;;;;;;;18.18;51.39;101454.84;4977734;28;20037;-83
2022/09/02 08:38:43;;;;;;;5.90;2.20;;;;;;;18.28;51.84;101460.78;4979410;28;20375;-85
2022/09/02 08:41:16;;;;;;;8.70;2.30;;;;;;;18.39;51.82;101462.31;4976597;28;20088;-83
2022/09/02 08:43:43;;;;;;;6.13;2.33;;;;;;;18.43;51.09;101459.19;4964939;28;20114;-83
2022/09/02 08:46:13;;;;;;;8.30;2.08;;;;;;;18.47;50.52;101460.53;4979656;28;20030;-85
2022/09/02 08:48:51;;;;;;;7.13;2.42;;;;;;;18.53;50.08;101459.88;4983426;28;20069;-85
2022/09/02 08:51:30;;;;;;;10.63;2.50;;;;;;;18.61;50.59;101455.63;4975284;28;20085;-86
2022/09/02 08:54:13;;;;;;;6.10;2.30;;;;;;;18.72;50.61;101453.53;4989069;28;20119;-82
2022/09/02 08:56:40;;;;;;;5.65;2.22;;;;;;;18.80;50.35;101444.81;4990601;28;20919;-83
2022/09/02 08:59:08;;;;;;;8.15;2.70;;;;;;;18.92;49.88;101448.75;4988515;28;20034;-82
2022/09/02 09:01:55;;;;;;;5.13;2.35;;;;;;;19.01;50.33;101447.78;4988061;28;20053;-82
2022/09/02 09:04:55;;;;;;;6.00;2.30;;;;;;;19.06;50.30;101445.47;4986988;28;20038;-83
2022/09/02 09:08:04;;;;;;;6.57;2.42;;;;;;;19.17;50.80;101451.41;4946447;28;20038;-83
2022/09/02 09:10:46;;;;;;;6.50;2.67;;;;;;;19.22;49.83;101449.09;4969610;28;20034;-84
2022/09/02 09:13:24;;;;;;;6.50;2.40;;;;;;;19.37;50.10;101450.03;4971998;28;20069;-82
2022/09/02 09:15:57;;;;;;;5.18;2.42;;;;;;;19.45;49.71;101455.28;4990185;28;20035;-83
2022/09/02 09:18:39;;;;;;;7.43;2.85;;;;;;;19.51;49.65;101449.34;4984321;28;20034;-84
2022/09/02 09:21:06;;;;;;;6.20;2.30;;;;;;;19.66;49.92;101446.03;4979789;28;20462;-83
2022/09/02 09:23:34;;;;;;;10.02;2.50;;;;;;;19.70;49.19;101447.34;4987387;28;20030;-83
2022/09/02 09:26:11;;;;;;;7.70;2.70;;;;;;;19.77;48.89;101450.94;4979140;28;20026;-83
2022/09/02 09:28:42;;;;;;;7.47;2.70;;;;;;;19.87;49.06;101439.22;4985262;28;20022;-82
2022/09/02 09:31:17;;;;;;;7.90;2.38;;;;;;;19.90;48.09;101443.34;4977445;28;20058;-82
2022/09/02 09:34:06;;;;;;;5.25;2.20;;;;;;;19.97;49.06;101444.28;4980591;28;20463;-82
2022/09/02 09:36:38;;;;;;;6.90;2.45;;;;;;;20.11;49.17;101440.09;4978001;28;20053;-82
2022/09/02 09:39:23;;;;;;;7.72;2.30;;;;;;;20.12;48.94;101437.28;4975048;28;20479;-82
2022/09/02 09:41:50;;;;;;;5.70;2.30;;;;;;;20.14;48.18;101430.06;4970727;28;20525;-81
2022/09/02 09:44:43;;;;;;;7.68;2.28;;;;;;;20.21;48.20;101432.00;4972235;28;20493;-82
2022/09/02 09:47:21;;;;;;;6.90;2.40;;;;;;;20.26;48.20;101432.28;4983394;28;20073;-83
2022/09/02 09:49:53;;;;;;;5.45;2.22;;;;;;;20.31;48.19;101429.97;4980527;28;20048;-82
2022/09/02 09:52:26;;;;;;;8.00;2.40;;;;;;;20.40;48.54;101424.44;4982038;28;20073;-82
2022/09/02 09:55:10;;;;;;;5.65;2.13;;;;;;;20.51;48.75;101425.88;4979328;28;20022;-83
2022/09/02 09:57:37;;;;;;;7.18;2.38;;;;;;;20.60;48.34;101430.13;4984185;28;20034;-83
2022/09/02 10:00:16;;;;;;;7.63;2.43;;;;;;;20.69;47.87;101413.22;4975068;28;20034;-83
2022/09/02 10:02:47;;;;;;;6.72;2.47;;;;;;;20.75;47.33;101421.44;4974902;28;20121;-82
2022/09/02 10:05:35;;;;;;;6.32;2.53;;;;;;;20.89;48.00;101420.66;4986712;28;20125;-84
2022/09/02 10:08:23;;;;;;;5.82;2.70;;;;;;;20.97;47.02;101410.03;4979931;28;20434;-84
2022/09/02 10:11:05;;;;;;;8.30;2.97;;;;;;;21.19;46.91;101419.72;4965297;28;20041;-83
2022/09/02 10:13:32;;;;;;;7.60;2.50;;;;;;;21.30;45.83;101420.31;4985396;28;20092;-82
2022/09/02 10:16:07;;;;;;;5.97;2.70;;;;;;;21.41;45.58;101411.94;4960097;28;20505;-82
2022/09/02 10:18:48;;;;;;;5.60;2.53;;;;;;;21.52;45.99;101414.13;4968889;28;20073;-82
2022/09/02 10:21:32;;;;;;;4.90;2.20;;;;;;;21.69;46.41;101412.91;4982685;28;20030;-82
2022/09/02 10:24:18;;;;;;;6.97;2.70;;;;;;;21.73;45.40;101408.91;4988948;28;20027;-83
2022/09/02 10:26:48;;;;;;;7.70;2.90;;;;;;;21.86;44.45;101404.78;4980614;28;20042;-83
2022/09/02 10:29:30;;;;;;;7.05;2.58;;;;;;;22.02;45.08;101399.28;4982630;28;20478;-82
2022/09/02 10:32:18;;;;;;;11.98;2.55;;;;;;;22.04;44.05;101402.56;4987665;28;20034;-84
2022/09/02 10:34:55;;;;;;;5.20;2.38;;;;;;;22.21;44.30;101404.00;4981160;28;20117;-84
2022/09/02 10:37:29;;;;;;;5.25;2.70;;;;;;;22.29;43.56;101394.31;4983121;28;20030;-84
2022/09/02 10:40:07;;;;;;;7.65;2.60;;;;;;;22.43;44.00;101396.09;4968386;28;20066;-82
2022/09/02 10:42:53;;;;;;;;;;;;;;;22.48;44.53;101396.31;4980678;28;20418;-83
2022/09/02 10:45:33;;;;;;;7.28;2.53;;;;;;;22.54;43.61;101395.59;4968080;28;20023;-83
2022/09/02 10:48:15;;;;;;;5.80;2.58;;;;;;;22.61;43.16;101390.34;4977676;28;20034;-82
2022/09/02 10:51:05;;;;;;;5.55;2.47;;;;;;;22.80;43.54;101387.84;4963417;28;20046;-82
2022/09/02 10:53:38;;;;;;;5.60;2.60;;;;;;;22.84;42.56;101387.47;4973688;28;20043;-86
2022/09/02 10:56:20;;;;;;;7.45;2.65;;;;;;;22.93;42.61;101392.44;4973371;28;20463;-85
2022/09/02 10:59:10;;;;;;;5.38;2.53;;;;;;;22.95;42.52;101389.63;4971655;28;20065;-84
2022/09/02 11:01:45;;;;;;;5.30;2.53;;;;;;;22.99;41.67;101390.84;4972516;28;20033;-84
2022/09/02 11:04:28;;;;;;;7.10;2.47;;;;;;;23.13;41.72;101382.00;4956837;28;20031;-79
2022/09/02 11:06:56;;;;;;;5.55;2.40;;;;;;;23.23;41.06;101387.78;4972017;28;20051;-86
2022/09/02 11:09:44;;;;;;;6.93;2.97;;;;;;;23.38;41.57;101382.34;4972810;28;20027;-84
2022/09/02 11:12:30;;;;;;;7.22;3.10;;;;;;;23.50;41.14;101378.13;4980817;28;20041;-83
2022/09/02 11:15:05;;;;;;;7.22;2.55;;;;;;;23.60;41.14;101380.41;4973776;28;20041;-84
2022/09/02 11:18:16;;;;;;;6.05;2.55;;;;;;;23.65;40.84;101374.56;4971354;28;20070;-86
2022/09/02 11:21:13;;;;;;;8.23;2.63;;;;;;;23.63;40.33;101369.47;4927443;29;20091;-86
2022/09/02 11:23:48;;;;;;;7.38;2.70;;;;;;;23.84;39.70;101364.03;4915524;29;20071;-84
2022/09/02 11:26:19;;;;;;;8.18;2.78;;;;;;;23.78;39.38;101359.53;4924993;29;20051;-85
2022/09/02 11:28:58;;;;;;;7.70;2.72;;;;;;;23.85;39.37;101370.94;4927815;29;20044;-83
2022/09/02 11:31:31;;;;;;;6.75;2.85;;;;;;;23.83;39.22;101348.34;4927165;29;20067;-84
2022/09/02 11:33:59;;;;;;;7.00;2.70;;;;;;;23.91;38.33;101349.97;4926832;29;20082;-83
2022/09/02 11:36:25;;;;;;;9.00;2.80;;;;;;;24.00;39.23;101346.13;4925924;29;20039;-84
2022/09/02 11:39:06;;;;;;;7.72;2.40;;;;;;;24.16;38.20;101351.06;4926799;29;20556;-83
2022/09/02 11:42:03;;;;;;;4.70;2.20;;;;;;;24.16;36.89;101337.00;4921026;29;20091;-82
2022/09/02 11:44:45;;;;;;;5.53;2.37;;;;;;;24.25;36.42;101343.72;4926474;29;20388;-82